createdAt,value
2018-11-12T00:00:24.499Z,1000.24
2018-11-12T00:01:24.516Z,1000.28
2018-11-12T00:02:24.531Z,1000.32
2018-11-12T00:03:24.552Z,1000.37
2018-11-12T00:04:24.568Z,1000.44
2018-11-12T00:05:24.584Z,1000.48
2018-11-12T00:06:24.605Z,1000.51
2018-11-12T00:07:24.624Z,1000.53
2018-11-12T00:08:24.640Z,1000.56
2018-11-12T00:09:24.652Z,1000.62
2018-11-12T00:10:24.669Z,1000.59
2018-11-12T00:11:24.685Z,1000.62
2018-11-12T00:12:24.705Z,1000.62
2018-11-12T00:13:24.792Z,1000.63
2018-11-12T00:14:24.737Z,1000.64
2018-11-12T00:15:24.756Z,1000.63
2018-11-12T00:16:24.769Z,1000.59
2018-11-12T00:17:24.789Z,1000.58
2018-11-12T00:18:24.801Z,1000.59
2018-11-12T00:19:24.876Z,1000.64
2018-11-12T00:20:24.833Z,1000.66
2018-11-12T00:21:24.853Z,1000.68
2018-11-12T00:22:24.874Z,1000.68
2018-11-12T00:23:24.888Z,1000.64
2018-11-12T00:24:24.900Z,1000.67
2018-11-12T00:25:24.913Z,1000.68
2018-11-12T00:26:24.937Z,1000.66
2018-11-12T00:27:24.949Z,1000.68
2018-11-12T00:28:24.974Z,1000.66
2018-11-12T00:29:24.980Z,1000.65
2018-11-12T00:30:25.002Z,1000.69
2018-11-12T00:31:25.109Z,1000.67
2018-11-12T00:32:25.034Z,1000.68
2018-11-12T00:33:25.050Z,1000.66
2018-11-12T00:34:25.065Z,1000.71
2018-11-12T00:35:25.142Z,1000.69
2018-11-12T00:36:25.097Z,1000.70
2018-11-12T00:37:25.118Z,1000.70
2018-11-12T00:38:25.129Z,1000.67
2018-11-12T00:39:25.149Z,1000.68
2018-11-12T00:40:25.162Z,1000.67
2018-11-12T00:41:25.181Z,1000.69
2018-11-12T00:42:25.202Z,1000.64
2018-11-12T00:43:25.309Z,1000.66
2018-11-12T00:44:25.233Z,1000.61
2018-11-12T00:45:25.250Z,1000.58
2018-11-12T00:46:25.257Z,1000.57
2018-11-12T00:47:25.277Z,1000.53
2018-11-12T00:48:25.291Z,1000.56
2018-11-12T00:49:25.372Z,1000.57
2018-11-12T00:50:25.321Z,1000.61
2018-11-12T00:51:25.346Z,1000.63
2018-11-12T00:52:25.357Z,1000.61
2018-11-12T00:53:25.401Z,1000.66
2018-11-12T00:54:25.390Z,1000.63
2018-11-12T00:55:25.411Z,1000.68
2018-11-12T00:56:25.423Z,1000.70
2018-11-12T00:57:25.443Z,1000.73
2018-11-12T00:58:25.458Z,1000.69
2018-11-12T00:59:25.481Z,1000.75
2018-11-12T01:00:25.495Z,1000.73
2018-11-12T01:01:25.526Z,1000.72
2018-11-12T01:02:25.526Z,1000.75
2018-11-12T01:03:25.537Z,1000.76
2018-11-12T01:04:25.559Z,1000.77
2018-11-12T01:05:25.577Z,1000.77
2018-11-12T01:06:25.594Z,1000.75
2018-11-12T01:07:25.612Z,1000.74
2018-11-12T01:08:25.626Z,1000.75
2018-11-12T01:09:25.635Z,1000.76
2018-11-12T01:10:25.666Z,1000.75
2018-11-12T01:11:25.674Z,1000.78
2018-11-12T01:12:25.694Z,1000.80
2018-11-12T01:13:25.713Z,1000.82
2018-11-12T01:14:25.723Z,1000.85
2018-11-12T01:15:25.742Z,1000.88
2018-11-12T01:16:25.755Z,1000.90
2018-11-12T01:17:25.775Z,1000.90
2018-11-12T01:18:25.790Z,1000.93
2018-11-12T01:19:25.883Z,1000.92
2018-11-12T01:20:25.831Z,1000.91
2018-11-12T01:21:25.846Z,1000.91
2018-11-12T01:22:25.858Z,1000.88
2018-11-12T01:23:25.876Z,1000.90
2018-11-12T01:24:25.895Z,1000.88
2018-11-12T01:25:25.941Z,1000.90
2018-11-12T01:26:25.926Z,1000.84
2018-11-12T01:27:25.939Z,1000.82
2018-11-12T01:28:25.958Z,1000.77
2018-11-12T01:29:25.979Z,1000.75
2018-11-12T01:30:25.991Z,1000.79
2018-11-12T01:31:26.071Z,1000.75
2018-11-12T01:32:26.027Z,1000.77
2018-11-12T01:33:26.038Z,1000.73
2018-11-12T01:34:26.055Z,1000.71
2018-11-12T01:35:26.076Z,1000.70
2018-11-12T01:36:26.094Z,1000.66
2018-11-12T01:37:26.188Z,1000.66
2018-11-12T01:38:26.123Z,1000.65
2018-11-12T01:39:26.138Z,1000.62
2018-11-12T01:40:26.160Z,1000.62
2018-11-12T01:41:26.186Z,1000.62
2018-11-12T01:42:26.196Z,1000.60
2018-11-12T01:43:26.208Z,1000.62
2018-11-12T01:44:26.223Z,1000.62
2018-11-12T01:45:26.249Z,1000.61
2018-11-12T01:46:26.258Z,1000.65
2018-11-12T01:47:26.275Z,1000.69
2018-11-12T01:48:26.296Z,1000.72
2018-11-12T01:49:26.311Z,1000.70
2018-11-12T01:50:26.331Z,1000.69
2018-11-12T01:51:26.339Z,1000.63
2018-11-12T01:52:26.363Z,1000.60
2018-11-12T01:53:26.380Z,1000.59
2018-11-12T01:54:26.390Z,1000.62
2018-11-12T01:55:26.416Z,1000.60
2018-11-12T01:56:26.432Z,1000.64
2018-11-12T01:57:26.452Z,1000.65
2018-11-12T01:58:26.469Z,1000.65
2018-11-12T01:59:26.481Z,1000.64
2018-11-12T02:00:26.496Z,1000.62
2018-11-12T02:01:26.555Z,1000.66
2018-11-12T02:02:26.536Z,1000.65
2018-11-12T02:03:26.543Z,1000.68
2018-11-12T02:04:26.561Z,1000.66
2018-11-12T02:05:26.582Z,1000.66
2018-11-12T02:06:26.597Z,1000.64
2018-11-12T02:07:26.616Z,1000.65
2018-11-12T02:08:26.633Z,1000.62
2018-11-12T02:09:26.652Z,1000.59
2018-11-12T02:10:26.664Z,1000.62
2018-11-12T02:11:26.673Z,1000.56
2018-11-12T02:12:26.701Z,1000.55
2018-11-12T02:13:26.720Z,1000.51
2018-11-12T02:14:26.735Z,1000.47
2018-11-12T02:15:26.745Z,1000.48
2018-11-12T02:16:26.764Z,1000.50
2018-11-12T02:17:26.784Z,1000.52
2018-11-12T02:18:26.801Z,1000.54
2018-11-12T02:19:26.868Z,1000.56
2018-11-12T02:20:26.839Z,1000.55
2018-11-12T02:21:26.853Z,1000.54
2018-11-12T02:22:26.954Z,1000.58
2018-11-12T02:23:26.881Z,1000.59
2018-11-12T02:24:26.905Z,1000.63
2018-11-12T02:25:26.928Z,1000.66
2018-11-12T02:26:26.933Z,1000.62
2018-11-12T02:27:26.949Z,1000.63
2018-11-12T02:28:26.968Z,1000.68
2018-11-12T02:29:27.011Z,1000.68
2018-11-12T02:30:27.002Z,1000.68
2018-11-12T02:31:27.060Z,1000.72
2018-11-12T02:32:27.034Z,1000.72
2018-11-12T02:33:27.111Z,1000.72
2018-11-12T02:34:27.070Z,1000.76
2018-11-12T02:35:27.090Z,1000.75
2018-11-12T02:36:27.109Z,1000.79
2018-11-12T02:37:27.197Z,1000.83
2018-11-12T02:38:27.141Z,1000.83
2018-11-12T02:39:27.153Z,1000.94
2018-11-12T02:40:27.170Z,1000.93
2018-11-12T02:41:27.194Z,1001.01
2018-11-12T02:42:27.211Z,1001.01
2018-11-12T02:43:27.226Z,1001.04
2018-11-12T02:44:27.238Z,1001.04
2018-11-12T02:45:27.254Z,1001.10
2018-11-12T02:46:27.274Z,1001.09
2018-11-12T02:47:27.285Z,1001.14
2018-11-12T02:48:27.312Z,1001.18
2018-11-12T02:49:27.351Z,1001.19
2018-11-12T02:50:27.346Z,1001.19
2018-11-12T02:51:27.361Z,1001.16
2018-11-12T02:52:27.370Z,1001.18
2018-11-12T02:53:27.387Z,1001.22
2018-11-12T02:54:27.405Z,1001.23
2018-11-12T02:55:27.559Z,1001.19
2018-11-12T02:56:27.444Z,1001.17
2018-11-12T02:57:27.534Z,1001.17
2018-11-12T02:58:27.475Z,1001.13
2018-11-12T02:59:27.491Z,1001.10
2018-11-12T03:00:27.507Z,1001.10
2018-11-12T03:01:27.531Z,1001.16
2018-11-12T03:02:27.543Z,1001.08
2018-11-12T03:03:27.555Z,1001.16
2018-11-12T03:04:27.579Z,1001.10
2018-11-12T03:05:27.595Z,1001.07
2018-11-12T03:06:27.615Z,1001.05
2018-11-12T03:07:27.647Z,1001.07
2018-11-12T03:08:27.644Z,1001.08
2018-11-12T03:09:27.668Z,1001.08
2018-11-12T03:10:27.683Z,1001.13
2018-11-12T03:11:27.694Z,1001.10
2018-11-12T03:12:27.713Z,1001.12
2018-11-12T03:13:27.727Z,1001.09
2018-11-12T03:14:27.752Z,1001.09
2018-11-12T03:15:27.767Z,1001.07
2018-11-12T03:16:27.779Z,1001.09
2018-11-12T03:17:27.798Z,1001.11
2018-11-12T03:18:27.810Z,1001.13
2018-11-12T03:19:27.821Z,1001.20
2018-11-12T03:20:27.843Z,1001.20
2018-11-12T03:21:27.859Z,1001.25
2018-11-12T03:22:27.876Z,1001.27
2018-11-12T03:23:27.895Z,1001.29
2018-11-12T03:24:27.912Z,1001.29
2018-11-12T03:25:27.932Z,1001.31
2018-11-12T03:26:27.947Z,1001.33
2018-11-12T03:27:28.010Z,1001.33
2018-11-12T03:28:27.985Z,1001.33
2018-11-12T03:29:27.995Z,1001.33
2018-11-12T03:30:28.088Z,1001.31
2018-11-12T03:31:28.028Z,1001.33
2018-11-12T03:32:28.048Z,1001.30
2018-11-12T03:33:28.068Z,1001.32
2018-11-12T03:34:28.087Z,1001.32
2018-11-12T03:35:28.103Z,1001.34
2018-11-12T03:36:28.179Z,1001.36
2018-11-12T03:37:28.131Z,1001.36
2018-11-12T03:38:28.151Z,1001.39
2018-11-12T03:39:28.212Z,1001.41
2018-11-12T03:40:28.182Z,1001.44
2018-11-12T03:41:28.192Z,1001.45
2018-11-12T03:42:28.266Z,1001.44
2018-11-12T03:43:28.228Z,1001.44
2018-11-12T03:44:28.244Z,1001.41
2018-11-12T03:45:28.267Z,1001.39
2018-11-12T03:46:28.293Z,1001.31
2018-11-12T03:47:28.299Z,1001.30
2018-11-12T03:48:28.349Z,1001.27
2018-11-12T03:49:28.336Z,1001.24
2018-11-12T03:50:28.347Z,1001.28
2018-11-12T03:51:28.393Z,1001.28
2018-11-12T03:52:28.383Z,1001.28
2018-11-12T03:53:28.401Z,1001.25
2018-11-12T03:54:28.503Z,1001.25
2018-11-12T03:55:28.435Z,1001.27
2018-11-12T03:56:28.451Z,1001.24
2018-11-12T03:57:28.463Z,1001.28
2018-11-12T03:58:28.484Z,1001.22
2018-11-12T03:59:28.504Z,1001.20
2018-11-12T04:00:28.677Z,1001.20
2018-11-12T04:01:28.536Z,1001.18
2018-11-12T04:02:28.547Z,1001.18
2018-11-12T04:03:28.569Z,1001.21
2018-11-12T04:04:28.589Z,1001.18
2018-11-12T04:05:28.600Z,1001.18
2018-11-12T04:06:28.692Z,1001.22
2018-11-12T04:07:28.632Z,1001.16
2018-11-12T04:08:28.656Z,1001.19
2018-11-12T04:09:28.672Z,1001.17
2018-11-12T04:10:28.683Z,1001.22
2018-11-12T04:11:28.700Z,1001.21
2018-11-12T04:12:28.731Z,1001.23
2018-11-12T04:13:28.732Z,1001.22
2018-11-12T04:14:28.753Z,1001.20
2018-11-12T04:15:28.772Z,1001.27
2018-11-12T04:16:28.788Z,1001.31
2018-11-12T04:17:28.801Z,1001.34
2018-11-12T04:18:28.823Z,1001.35
2018-11-12T04:19:28.837Z,1001.32
2018-11-12T04:20:28.857Z,1001.32
2018-11-12T04:21:28.872Z,1001.32
2018-11-12T04:22:28.888Z,1001.31
2018-11-12T04:23:28.911Z,1001.31
2018-11-12T04:24:29.018Z,1001.32
2018-11-12T04:25:28.936Z,1001.30
2018-11-12T04:26:28.957Z,1001.31
2018-11-12T04:27:28.978Z,1001.35
2018-11-12T04:28:28.985Z,1001.37
2018-11-12T04:29:29.013Z,1001.37
2018-11-12T04:30:29.040Z,1001.38
2018-11-12T04:31:29.041Z,1001.40
2018-11-12T04:32:29.057Z,1001.40
2018-11-12T04:33:29.074Z,1001.43
2018-11-12T04:34:29.084Z,1001.48
2018-11-12T04:35:29.106Z,1001.50
2018-11-12T04:36:29.233Z,1001.57
2018-11-12T04:37:29.137Z,1001.56
2018-11-12T04:38:29.153Z,1001.55
2018-11-12T04:39:29.177Z,1001.57
2018-11-12T04:40:29.190Z,1001.56
2018-11-12T04:41:29.205Z,1001.54
2018-11-12T04:42:29.221Z,1001.55
2018-11-12T04:43:29.237Z,1001.53
2018-11-12T04:44:29.251Z,1001.47
2018-11-12T04:45:29.324Z,1001.48
2018-11-12T04:46:29.284Z,1001.56
2018-11-12T04:47:29.309Z,1001.50
2018-11-12T04:48:29.325Z,1001.60
2018-11-12T04:49:29.345Z,1001.59
2018-11-12T04:50:29.358Z,1001.59
2018-11-12T04:51:29.375Z,1001.59
2018-11-12T04:52:29.388Z,1001.63
2018-11-12T04:53:29.436Z,1001.65
2018-11-12T04:54:29.428Z,1001.67
2018-11-12T04:55:29.588Z,1001.68
2018-11-12T04:56:29.454Z,1001.67
2018-11-12T04:57:29.474Z,1001.68
2018-11-12T04:58:29.486Z,1001.69
2018-11-12T04:59:29.502Z,1001.70
2018-11-12T05:00:29.522Z,1001.68
2018-11-12T05:01:29.538Z,1001.68
2018-11-12T05:02:29.558Z,1001.67
2018-11-12T05:03:29.577Z,1001.63
2018-11-12T05:04:29.586Z,1001.65
2018-11-12T05:05:29.606Z,1001.67
2018-11-12T05:06:29.625Z,1001.67
2018-11-12T05:07:29.703Z,1001.67
2018-11-12T05:08:29.662Z,1001.71
2018-11-12T05:09:29.674Z,1001.73
2018-11-12T05:10:29.690Z,1001.74
2018-11-12T05:11:29.702Z,1001.71
2018-11-12T05:12:29.754Z,1001.69
2018-11-12T05:13:29.741Z,1001.69
2018-11-12T05:14:29.757Z,1001.70
2018-11-12T05:15:29.770Z,1001.72
2018-11-12T05:16:29.875Z,1001.72
2018-11-12T05:17:29.814Z,1001.73
2018-11-12T05:18:29.830Z,1001.75
2018-11-12T05:19:29.843Z,1001.79
2018-11-12T05:20:29.857Z,1001.80
2018-11-12T05:21:29.882Z,1001.83
2018-11-12T05:22:29.886Z,1001.81
2018-11-12T05:23:29.907Z,1001.86
2018-11-12T05:24:29.918Z,1001.84
2018-11-12T05:25:29.934Z,1001.81
2018-11-12T05:26:29.959Z,1001.83
2018-11-12T05:27:29.971Z,1001.80
2018-11-12T05:28:29.986Z,1001.87
2018-11-12T05:29:30.003Z,1001.85
2018-11-12T05:30:30.019Z,1001.89
2018-11-12T05:31:30.038Z,1001.94
2018-11-12T05:32:30.050Z,1001.94
2018-11-12T05:33:30.071Z,1001.94
2018-11-12T05:34:30.091Z,1001.95
2018-11-12T05:35:30.106Z,1001.99
2018-11-12T05:36:30.127Z,1001.99
2018-11-12T05:37:30.172Z,1002.00
2018-11-12T05:38:30.151Z,1002.04
2018-11-12T05:39:30.175Z,1002.09
2018-11-12T05:40:30.183Z,1002.07
2018-11-12T05:41:30.206Z,1002.11
2018-11-12T05:42:30.228Z,1002.16
2018-11-12T05:43:30.234Z,1002.21
2018-11-12T05:44:30.253Z,1002.20
2018-11-12T05:45:30.270Z,1002.21
2018-11-12T05:46:30.298Z,1002.25
2018-11-12T05:47:30.307Z,1002.28
2018-11-12T05:48:30.318Z,1002.29
2018-11-12T05:49:30.384Z,1002.28
2018-11-12T05:50:30.346Z,1002.31
2018-11-12T05:51:30.402Z,1002.32
2018-11-12T05:52:30.382Z,1002.30
2018-11-12T05:53:30.398Z,1002.27
2018-11-12T05:54:30.418Z,1002.30
2018-11-12T05:55:30.438Z,1002.32
2018-11-12T05:56:30.447Z,1002.28
2018-11-12T05:57:30.468Z,1002.31
2018-11-12T05:58:30.485Z,1002.34
2018-11-12T05:59:30.506Z,1002.36
2018-11-12T06:00:30.527Z,1002.37
2018-11-12T06:01:30.534Z,1002.40
2018-11-12T06:02:30.543Z,1002.35
2018-11-12T06:03:30.563Z,1002.33
2018-11-12T06:04:30.578Z,1002.35
2018-11-12T06:05:30.602Z,1002.41
2018-11-12T06:06:30.607Z,1002.43
2018-11-12T06:07:30.631Z,1002.46
2018-11-12T06:08:30.643Z,1002.44
2018-11-12T06:09:30.663Z,1002.48
2018-11-12T06:10:30.677Z,1002.53
2018-11-12T06:11:30.695Z,1002.54
2018-11-12T06:12:30.712Z,1002.50
2018-11-12T06:13:30.727Z,1002.48
2018-11-12T06:14:30.741Z,1002.48
2018-11-12T06:15:30.750Z,1002.42
2018-11-12T06:16:30.773Z,1002.37
2018-11-12T06:17:30.783Z,1002.35
2018-11-12T06:18:30.804Z,1002.34
2018-11-12T06:19:30.825Z,1002.37
2018-11-12T06:20:30.839Z,1002.40
2018-11-12T06:21:30.849Z,1002.40
2018-11-12T06:22:30.878Z,1002.44
2018-11-12T06:23:30.892Z,1002.48
2018-11-12T06:24:30.899Z,1002.49
2018-11-12T06:25:30.919Z,1002.47
2018-11-12T06:26:30.940Z,1002.47
2018-11-12T06:27:30.952Z,1002.43
2018-11-12T06:28:30.971Z,1002.46
2018-11-12T06:29:30.988Z,1002.44
2018-11-12T06:30:31.004Z,1002.45
2018-11-12T06:31:31.020Z,1002.46
2018-11-12T06:32:31.032Z,1002.45
2018-11-12T06:33:31.051Z,1002.49
2018-11-12T06:34:31.072Z,1002.50
2018-11-12T06:35:31.088Z,1002.53
2018-11-12T06:36:31.108Z,1002.48
2018-11-12T06:37:31.122Z,1002.52
2018-11-12T06:38:31.136Z,1002.59
2018-11-12T06:39:31.146Z,1002.56
2018-11-12T06:40:31.168Z,1002.62
2018-11-12T06:41:31.179Z,1002.62
2018-11-12T06:42:31.334Z,1002.63
2018-11-12T06:43:31.215Z,1002.68
2018-11-12T06:44:31.229Z,1002.65
2018-11-12T06:45:31.248Z,1002.66
2018-11-12T06:46:31.265Z,1002.66
2018-11-12T06:47:31.276Z,1002.65
2018-11-12T06:48:31.291Z,1002.61
2018-11-12T06:49:31.312Z,1002.57
2018-11-12T06:50:31.328Z,1002.53
2018-11-12T06:51:31.341Z,1002.56
2018-11-12T06:52:31.364Z,1002.58
2018-11-12T06:53:31.442Z,1002.63
2018-11-12T06:54:31.395Z,1002.58
2018-11-12T06:55:31.413Z,1002.61
2018-11-12T06:56:31.425Z,1002.58
2018-11-12T06:57:31.439Z,1002.61
2018-11-12T06:58:31.461Z,1002.63
2018-11-12T06:59:31.476Z,1002.64
2018-11-12T07:00:31.501Z,1002.69
2018-11-12T07:01:31.516Z,1002.72
2018-11-12T07:02:31.525Z,1002.75
2018-11-12T07:03:31.541Z,1002.81
2018-11-12T07:04:31.558Z,1002.79
2018-11-12T07:05:31.578Z,1002.83
2018-11-12T07:06:31.657Z,1002.85
2018-11-12T07:07:31.701Z,1002.85
2018-11-12T07:08:31.623Z,1002.84
2018-11-12T07:09:31.640Z,1002.86
2018-11-12T07:10:31.660Z,1002.88
2018-11-12T07:11:31.674Z,1002.93
2018-11-12T07:12:31.685Z,1002.96
2018-11-12T07:13:31.761Z,1002.96
2018-11-12T07:14:31.721Z,1002.92
2018-11-12T07:15:31.741Z,1002.93
2018-11-12T07:16:31.753Z,1002.99
2018-11-12T07:17:31.777Z,1002.99
2018-11-12T07:18:31.786Z,1003.05
2018-11-12T07:19:31.806Z,1003.05
2018-11-12T07:20:31.822Z,1003.12
2018-11-12T07:21:31.834Z,1003.12
2018-11-12T07:22:31.871Z,1003.14
2018-11-12T07:23:31.870Z,1003.16
2018-11-12T07:24:31.882Z,1003.15
2018-11-12T07:25:31.907Z,1003.18
2018-11-12T07:26:31.918Z,1003.12
2018-11-12T07:27:31.934Z,1003.16
2018-11-12T07:28:31.961Z,1003.12
2018-11-12T07:29:31.962Z,1003.18
2018-11-12T07:30:31.993Z,1003.22
2018-11-12T07:31:32.002Z,1003.21
2018-11-12T07:32:32.014Z,1003.18
2018-11-12T07:33:32.029Z,1003.09
2018-11-12T07:34:32.100Z,1003.08
2018-11-12T07:35:32.066Z,1003.09
2018-11-12T07:36:32.077Z,1003.08
2018-11-12T07:37:32.096Z,1003.08
2018-11-12T07:38:32.114Z,1003.12
2018-11-12T07:39:32.125Z,1003.19
2018-11-12T07:40:32.146Z,1003.18
2018-11-12T07:41:32.157Z,1003.21
2018-11-12T07:42:32.171Z,1003.24
2018-11-12T07:43:32.185Z,1003.28
2018-11-12T07:44:32.207Z,1003.31
2018-11-12T07:45:32.221Z,1003.33
2018-11-12T07:46:32.237Z,1003.34
2018-11-12T07:47:32.255Z,1003.40
2018-11-12T07:48:32.319Z,1003.45
2018-11-12T07:49:32.284Z,1003.42
2018-11-12T07:50:32.305Z,1003.40
2018-11-12T07:51:32.417Z,1003.39
2018-11-12T07:52:32.333Z,1003.40
2018-11-12T07:53:32.349Z,1003.38
2018-11-12T07:54:32.570Z,1003.35
2018-11-12T07:55:32.382Z,1003.33
2018-11-12T07:56:32.505Z,1003.35
2018-11-12T07:57:32.416Z,1003.36
2018-11-12T07:58:32.433Z,1003.42
2018-11-12T07:59:32.445Z,1003.46
2018-11-12T08:00:32.469Z,1003.51
2018-11-12T08:01:32.485Z,1003.51
2018-11-12T08:02:32.504Z,1003.56
2018-11-12T08:04:32.534Z,1003.63
2018-11-12T08:05:32.544Z,1003.68
2018-11-12T08:06:32.570Z,1003.71
2018-11-12T08:07:32.582Z,1003.74
2018-11-12T08:08:32.597Z,1003.82
2018-11-12T08:09:32.679Z,1003.84
2018-11-12T08:10:32.629Z,1003.86
2018-11-12T08:11:32.641Z,1003.86
2018-11-12T08:12:32.661Z,1003.87
2018-11-12T08:13:32.673Z,1003.79
2018-11-12T08:14:32.750Z,1003.84
2018-11-12T08:15:32.700Z,1003.85
2018-11-12T08:16:32.721Z,1003.84
2018-11-12T08:17:33.017Z,1003.84
2018-11-12T08:18:32.756Z,1003.88
2018-11-12T08:19:32.767Z,1003.93
2018-11-12T08:20:32.796Z,1003.97
2018-11-12T08:21:32.871Z,1003.97
2018-11-12T08:22:32.824Z,1004.00
2018-11-12T08:23:32.832Z,1004.00
2018-11-12T08:24:32.875Z,1004.00
2018-11-12T08:25:32.872Z,1004.02
2018-11-12T08:26:32.899Z,1004.08
2018-11-12T08:27:32.957Z,1004.09
2018-11-12T08:28:32.922Z,1004.15
2018-11-12T08:29:32.943Z,1004.12
2018-11-12T08:30:32.981Z,1004.14
2018-11-12T08:31:32.981Z,1004.14
2018-11-12T08:32:32.985Z,1004.15
2018-11-12T08:33:33.001Z,1004.16
2018-11-12T08:34:33.025Z,1004.16
2018-11-12T08:35:33.033Z,1004.23
2018-11-12T08:36:33.164Z,1004.26
2018-11-12T08:37:33.069Z,1004.24
2018-11-12T08:38:33.086Z,1004.23
2018-11-12T08:39:33.264Z,1004.28
2018-11-12T08:40:33.258Z,1004.28
2018-11-12T08:41:33.142Z,1004.35
2018-11-12T08:42:33.149Z,1004.30
2018-11-12T08:43:33.174Z,1004.38
2018-11-12T08:44:33.179Z,1004.38
2018-11-12T08:45:33.197Z,1004.41
2018-11-12T08:46:33.214Z,1004.41
2018-11-12T08:47:33.238Z,1004.43
2018-11-12T08:48:33.379Z,1004.41
2018-11-12T08:49:33.338Z,1004.43
2018-11-12T08:50:33.281Z,1004.49
2018-11-12T08:51:33.305Z,1004.57
2018-11-12T08:52:33.312Z,1004.55
2018-11-12T08:53:33.330Z,1004.58
2018-11-12T08:54:33.388Z,1004.60
2018-11-12T08:55:33.436Z,1004.56
2018-11-12T08:56:33.389Z,1004.54
2018-11-12T08:57:33.403Z,1004.57
2018-11-12T08:58:33.417Z,1004.55
2018-11-12T08:59:33.476Z,1004.58
2018-11-12T09:00:33.485Z,1004.62
2018-11-12T09:01:33.469Z,1004.62
2018-11-12T09:02:33.490Z,1004.68
2018-11-12T09:03:33.508Z,1004.76
2018-11-12T09:04:33.522Z,1004.76
2018-11-12T09:05:33.629Z,1004.75
2018-11-12T09:06:33.574Z,1004.71
2018-11-12T09:07:33.574Z,1004.74
2018-11-12T09:08:33.594Z,1004.74
2018-11-12T09:09:33.607Z,1004.76
2018-11-12T09:10:33.629Z,1004.78
2018-11-12T09:11:33.641Z,1004.80
2018-11-12T09:12:33.662Z,1004.83
2018-11-12T09:13:33.682Z,1004.90
2018-11-12T09:14:33.697Z,1004.92
2018-11-12T09:15:33.797Z,1004.96
2018-11-12T09:16:33.729Z,1004.94
2018-11-12T09:17:33.750Z,1004.88
2018-11-12T09:18:33.763Z,1004.85
2018-11-12T09:19:33.782Z,1004.87
2018-11-12T09:20:33.795Z,1004.79
2018-11-12T09:21:33.813Z,1004.78
2018-11-12T09:22:33.834Z,1004.76
2018-11-12T09:23:33.853Z,1004.77
2018-11-12T09:24:33.901Z,1004.79
2018-11-12T09:25:33.892Z,1004.80
2018-11-12T09:26:33.913Z,1004.80
2018-11-12T09:27:33.926Z,1004.83
2018-11-12T09:28:33.945Z,1004.82
2018-11-12T09:29:34.062Z,1004.80
2018-11-12T09:30:33.986Z,1004.81
2018-11-12T09:31:34.261Z,1004.84
2018-11-12T09:32:34.018Z,1004.85
2018-11-12T09:33:34.075Z,1004.89
2018-11-12T09:34:34.057Z,1004.93
2018-11-12T09:35:34.123Z,1004.96
2018-11-12T09:36:34.152Z,1005.03
2018-11-12T09:38:34.191Z,1005.09
2018-11-12T09:39:34.158Z,1005.11
2018-11-12T09:40:34.175Z,1005.18
2018-11-12T09:41:34.350Z,1005.14
2018-11-12T09:42:34.214Z,1005.12
2018-11-12T09:43:34.228Z,1005.07
2018-11-12T09:44:34.257Z,1005.08
2018-11-12T09:45:34.266Z,1005.12
2018-11-12T09:46:34.290Z,1005.16
2018-11-12T09:47:34.372Z,1005.17
2018-11-12T09:48:34.338Z,1005.15
2018-11-12T09:49:34.371Z,1005.23
2018-11-12T09:50:34.375Z,1005.22
2018-11-12T09:51:34.392Z,1005.16
2018-11-12T09:52:34.404Z,1005.20
2018-11-12T09:53:34.470Z,1005.18
2018-11-12T09:54:34.657Z,1005.19
2018-11-12T09:55:34.498Z,1005.19
2018-11-12T09:56:34.499Z,1005.19
2018-11-12T09:57:34.509Z,1005.21
2018-11-12T09:58:34.540Z,1005.20
2018-11-12T09:59:34.550Z,1005.23
2018-11-12T10:00:34.786Z,1005.21
2018-11-12T10:01:35.013Z,1005.28
2018-11-12T10:02:35.450Z,1005.28
2018-11-12T10:03:36.051Z,1005.28
2018-11-12T10:04:35.059Z,1005.26
2018-11-12T10:05:35.780Z,1005.27
2018-11-12T10:06:35.894Z,1005.29
2018-11-12T10:07:37.348Z,1005.27
2018-11-12T10:08:36.641Z,1005.30
2018-11-12T10:09:35.805Z,1005.31
2018-11-12T10:10:36.703Z,1005.34
2018-11-12T10:11:37.300Z,1005.33
2018-11-12T10:12:36.548Z,1005.34
2018-11-12T10:13:36.949Z,1005.34
2018-11-12T10:14:36.827Z,1005.31
2018-11-12T10:15:38.134Z,1005.35
2018-11-12T10:16:38.290Z,1005.38
2018-11-12T10:17:38.359Z,1005.38
2018-11-12T10:18:34.942Z,1005.39
2018-11-12T10:19:35.020Z,1005.42
2018-11-12T10:20:34.977Z,1005.45
2018-11-12T10:21:35.080Z,1005.47
2018-11-12T10:22:35.024Z,1005.41
2018-11-12T10:23:35.048Z,1005.47
2018-11-12T10:24:35.071Z,1005.46
2018-11-12T10:25:35.087Z,1005.44
2018-11-12T10:26:35.250Z,1005.45
2018-11-12T10:27:35.208Z,1005.40
2018-11-12T10:28:35.152Z,1005.45
2018-11-12T10:29:35.180Z,1005.45
2018-11-12T10:30:35.203Z,1005.44
2018-11-12T10:31:35.221Z,1005.45
2018-11-12T10:32:35.252Z,1005.50
2018-11-12T10:33:35.264Z,1005.47
2018-11-12T10:34:35.281Z,1005.42
2018-11-12T10:35:35.301Z,1005.46
2018-11-12T10:36:35.361Z,1005.51
2018-11-12T10:37:35.349Z,1005.52
2018-11-12T10:38:35.369Z,1005.55
2018-11-12T10:39:35.384Z,1005.52
2018-11-12T10:40:35.408Z,1005.53
2018-11-12T10:41:35.437Z,1005.58
2018-11-12T10:42:35.504Z,1005.61
2018-11-12T10:43:35.476Z,1005.65
2018-11-12T10:44:35.581Z,1005.61
2018-11-12T10:45:35.516Z,1005.63
2018-11-12T10:46:35.544Z,1005.66
2018-11-12T10:47:35.560Z,1005.71
2018-11-12T10:48:35.584Z,1005.71
2018-11-12T10:49:35.612Z,1005.71
2018-11-12T10:50:35.690Z,1005.67
2018-11-12T10:51:35.665Z,1005.62
2018-11-12T10:52:35.665Z,1005.65
2018-11-12T10:53:35.731Z,1005.64
2018-11-12T10:54:35.747Z,1005.63
2018-11-12T10:55:35.910Z,1005.70
2018-11-12T10:56:35.843Z,1005.70
2018-11-12T10:57:35.779Z,1005.71
2018-11-12T10:58:35.847Z,1005.65
2018-11-12T10:59:35.833Z,1005.72
2018-11-12T11:00:35.840Z,1005.77
2018-11-12T11:01:35.871Z,1005.74
2018-11-12T11:02:35.890Z,1005.75
2018-11-12T11:03:36.112Z,1005.69
2018-11-12T11:04:36.142Z,1005.66
2018-11-12T11:05:35.956Z,1005.72
2018-11-12T11:06:35.981Z,1005.70
2018-11-12T11:07:35.992Z,1005.71
2018-11-12T11:08:36.023Z,1005.76
2018-11-12T11:09:36.038Z,1005.78
2018-11-12T11:10:36.067Z,1005.77
2018-11-12T11:11:36.083Z,1005.72
2018-11-12T11:12:36.107Z,1005.73
2018-11-12T11:13:36.142Z,1005.75
2018-11-12T11:14:36.152Z,1005.79
2018-11-12T11:15:36.220Z,1005.91
2018-11-12T11:16:36.190Z,1005.94
2018-11-12T11:17:36.208Z,1005.99
2018-11-12T11:18:36.230Z,1006.01
2018-11-12T11:19:36.256Z,1006.00
2018-11-12T11:20:36.276Z,1006.05
2018-11-12T11:21:36.288Z,1006.04
2018-11-12T11:22:36.311Z,1006.08
2018-11-12T11:23:36.330Z,1006.10
2018-11-12T11:24:36.503Z,1006.07
2018-11-12T11:25:36.397Z,1006.05
2018-11-12T11:26:36.399Z,1006.06
2018-11-12T11:27:36.414Z,1006.02
2018-11-12T11:28:36.444Z,1005.98
2018-11-12T11:29:36.455Z,1005.92
2018-11-12T11:30:36.509Z,1005.95
2018-11-12T11:31:36.495Z,1005.92
2018-11-12T11:32:36.523Z,1005.88
2018-11-12T11:33:36.539Z,1005.82
2018-11-12T11:34:36.558Z,1005.86
2018-11-12T11:35:36.579Z,1005.79
2018-11-12T11:36:36.712Z,1005.78
2018-11-12T11:37:36.616Z,1005.75
2018-11-12T11:38:36.638Z,1005.76
2018-11-12T11:39:36.666Z,1005.73
2018-11-12T11:40:36.695Z,1005.75
2018-11-12T11:41:36.702Z,1005.71
2018-11-12T11:42:36.723Z,1005.72
2018-11-12T11:43:36.743Z,1005.72
2018-11-12T11:44:36.760Z,1005.73
2018-11-12T11:45:36.787Z,1005.68
2018-11-12T11:46:36.808Z,1005.75
2018-11-12T11:47:36.882Z,1005.73
2018-11-12T11:48:36.860Z,1005.72
2018-11-12T11:49:36.870Z,1005.72
2018-11-12T11:50:36.926Z,1005.72
2018-11-12T11:51:36.937Z,1005.71
2018-11-12T11:52:36.927Z,1005.71
2018-11-12T11:53:36.950Z,1005.71
2018-11-12T11:54:36.968Z,1005.73
2018-11-12T11:55:36.994Z,1005.70
2018-11-12T11:56:37.183Z,1005.73
2018-11-12T11:57:37.095Z,1005.69
2018-11-12T11:58:37.054Z,1005.69
2018-11-12T11:59:37.087Z,1005.68
2018-11-12T12:00:37.096Z,1005.70
2018-11-12T12:01:37.170Z,1005.68
2018-11-12T12:02:37.134Z,1005.65
2018-11-12T12:03:37.151Z,1005.66
2018-11-12T12:04:37.179Z,1005.63
2018-11-12T12:05:37.229Z,1005.59
2018-11-12T12:06:37.244Z,1005.60
2018-11-12T12:07:37.238Z,1005.62